createdAt,value
2022-11-09T00:00:44.177Z,99998.44
2022-11-09T00:03:12.436Z,99997.76
2022-11-09T00:05:41.228Z,99997.45
2022-11-09T00:08:10.859Z,99996.94
2022-11-09T00:10:38.851Z,99997.14
2022-11-09T00:13:06.401Z,99989.88
2022-11-09T00:15:33.956Z,99981.94
2022-11-09T00:18:02.723Z,99985.63
2022-11-09T00:20:30.615Z,99986.86
2022-11-09T00:22:58.442Z,99987.25
2022-11-09T00:25:26.018Z,99989.58
2022-11-09T00:27:53.984Z,99987.41
2022-11-09T00:30:21.564Z,99987.80
2022-11-09T00:32:49.132Z,99987.15
2022-11-09T00:35:16.723Z,99986.66
2022-11-09T00:37:44.580Z,99987.55
2022-11-09T00:40:13.094Z,99985.85
2022-11-09T00:42:40.633Z,99983.65
2022-11-09T00:45:08.491Z,99983.86
2022-11-09T00:47:36.092Z,99978.69
2022-11-09T00:50:04.843Z,99972.47
2022-11-09T00:52:32.370Z,99973.70
2022-11-09T00:54:59.877Z,99970.96
2022-11-09T00:57:27.438Z,99970.28
2022-11-09T00:59:55.024Z,99966.48
2022-11-09T01:02:22.537Z,99970.19
2022-11-09T01:04:50.095Z,99970.73
2022-11-09T01:07:17.653Z,99974.36
2022-11-09T01:09:45.221Z,99972.63
2022-11-09T01:12:12.744Z,99974.35
2022-11-09T01:14:40.266Z,99977.83
2022-11-09T01:17:07.783Z,99980.63
2022-11-09T01:19:35.466Z,99991.76
2022-11-09T01:22:02.991Z,99989.92
2022-11-09T01:24:30.515Z,99984.09
2022-11-09T01:26:58.019Z,99982.05
2022-11-09T01:29:25.563Z,99981.55
2022-11-09T01:31:55.274Z,99981.94
2022-11-09T01:34:23.453Z,99978.71
2022-11-09T01:36:51.806Z,99976.34
2022-11-09T01:39:19.965Z,99981.90
2022-11-09T01:41:47.692Z,99973.61
2022-11-09T01:44:18.011Z,99969.15
2022-11-09T01:47:10.327Z,99968.63
2022-11-09T01:49:50.132Z,99966.45
2022-11-09T01:52:26.333Z,99967.20
2022-11-09T01:55:00.443Z,99964.33
2022-11-09T01:57:33.314Z,99970.26
2022-11-09T02:00:07.499Z,99972.17
2022-11-09T02:02:37.772Z,99977.58
2022-11-09T02:05:09.723Z,99977.91
2022-11-09T02:07:38.816Z,99974.27
2022-11-09T02:10:14.510Z,99968.74
2022-11-09T02:12:43.701Z,99966.16
2022-11-09T02:15:13.169Z,99962.70
2022-11-09T02:17:42.045Z,99963.23
2022-11-09T02:20:14.784Z,99957.52
2022-11-09T02:22:42.505Z,99956.98
2022-11-09T02:25:11.421Z,99952.67
2022-11-09T02:27:40.170Z,99960.31
2022-11-09T02:30:09.464Z,99958.95
2022-11-09T02:32:37.046Z,99960.34
2022-11-09T02:35:04.977Z,99958.44
2022-11-09T02:37:50.960Z,99959.64
2022-11-09T02:40:32.981Z,99963.80
2022-11-09T02:43:01.552Z,99965.66
2022-11-09T02:45:29.088Z,99962.36
2022-11-09T02:47:56.711Z,99954.98
2022-11-09T02:50:24.458Z,99953.41
2022-11-09T02:52:52.010Z,99955.48
2022-11-09T02:55:19.558Z,99959.65
2022-11-09T02:57:47.089Z,99957.92
2022-11-09T03:00:15.685Z,99954.81
2022-11-09T03:02:43.362Z,99957.92
2022-11-09T03:05:10.919Z,99956.54
2022-11-09T03:07:38.452Z,99956.18
2022-11-09T03:10:06.435Z,99956.70
2022-11-09T03:12:33.976Z,99961.71
2022-11-09T03:15:05.293Z,99958.55
2022-11-09T03:17:33.460Z,99958.02
2022-11-09T03:20:01.041Z,99957.38
2022-11-09T03:22:29.064Z,99956.70
2022-11-09T03:24:57.026Z,99957.09
2022-11-09T03:27:24.571Z,99959.88
2022-11-09T03:29:52.285Z,99956.41
2022-11-09T03:32:19.822Z,99952.09
2022-11-09T03:34:47.422Z,99949.66
2022-11-09T03:37:15.312Z,99942.20
2022-11-09T03:39:42.896Z,99940.83
2022-11-09T03:42:10.477Z,99941.67
2022-11-09T03:44:38.050Z,99935.47
2022-11-09T03:47:05.660Z,99938.24
2022-11-09T03:49:33.288Z,99936.02
2022-11-09T03:52:00.828Z,99937.95
2022-11-09T03:54:28.463Z,99936.05
2022-11-09T03:56:56.051Z,99938.83
2022-11-09T03:59:23.634Z,99933.34
2022-11-09T04:01:51.238Z,99931.83
2022-11-09T04:04:19.259Z,99932.02
2022-11-09T04:06:46.889Z,99933.94
2022-11-09T04:09:14.597Z,99934.45
2022-11-09T04:11:42.128Z,99935.48
2022-11-09T04:14:09.659Z,99931.16
2022-11-09T04:16:37.220Z,99933.06
2022-11-09T04:19:05.025Z,99933.09
2022-11-09T04:21:34.720Z,99936.40
2022-11-09T04:24:02.294Z,99930.36
2022-11-09T04:26:29.801Z,99931.08
2022-11-09T04:28:57.923Z,99929.70
2022-11-09T04:31:27.994Z,99926.77
2022-11-09T04:33:55.989Z,99923.31
2022-11-09T04:36:23.537Z,99917.26
2022-11-09T04:38:51.525Z,99910.84
2022-11-09T04:41:19.144Z,99909.60
2022-11-09T04:43:46.778Z,99902.31
2022-11-09T04:46:14.339Z,99904.39
2022-11-09T04:48:41.930Z,99906.29
2022-11-09T04:51:10.856Z,99914.61
2022-11-09T04:53:39.280Z,99907.85
2022-11-09T04:56:07.720Z,99908.35
2022-11-09T04:58:35.598Z,99907.96
2022-11-09T05:01:21.250Z,99906.55
2022-11-09T05:03:48.976Z,99907.04
2022-11-09T05:06:32.641Z,99905.96
2022-11-09T05:09:05.614Z,99900.75
2022-11-09T05:11:35.226Z,99906.12
2022-11-09T05:14:03.070Z,99908.88
2022-11-09T05:16:31.402Z,99905.95
2022-11-09T05:18:59.014Z,99900.42
2022-11-09T05:21:27.517Z,99903.57
2022-11-09T05:24:01.207Z,99911.04
2022-11-09T05:26:31.788Z,99907.27
2022-11-09T05:29:01.112Z,99912.14
2022-11-09T05:31:29.546Z,99913.05
2022-11-09T05:33:58.080Z,99910.33
2022-11-09T05:36:27.715Z,99915.00
2022-11-09T05:38:55.517Z,99917.26
2022-11-09T05:41:23.872Z,99913.80
2022-11-09T05:43:51.713Z,99918.13
2022-11-09T05:46:19.844Z,99921.27
2022-11-09T05:48:47.382Z,99924.54
2022-11-09T05:51:16.040Z,99925.89
2022-11-09T05:53:46.849Z,99927.59
2022-11-09T05:56:15.691Z,99933.98
2022-11-09T05:58:43.651Z,99937.10
2022-11-09T06:01:14.778Z,99939.91
2022-11-09T06:03:43.986Z,99936.98
2022-11-09T06:06:13.860Z,99932.66
2022-11-09T06:08:42.085Z,99934.04
2022-11-09T06:11:11.756Z,99946.98
2022-11-09T06:13:39.399Z,99941.77
2022-11-09T06:16:07.586Z,99948.52
2022-11-09T06:18:37.076Z,99949.55
2022-11-09T06:21:05.968Z,99951.63
2022-11-09T06:23:34.354Z,99951.23
2022-11-09T06:26:09.493Z,99948.41
2022-11-09T06:28:38.809Z,99943.65
2022-11-09T06:31:08.576Z,99938.89
2022-11-09T06:33:36.756Z,99931.67
2022-11-09T06:36:05.024Z,99942.48
2022-11-09T06:38:32.755Z,99939.50
2022-11-09T06:41:00.818Z,99941.15
2022-11-09T06:43:28.849Z,99943.88
2022-11-09T06:45:57.024Z,99944.39
2022-11-09T06:48:24.923Z,99946.24
2022-11-09T06:50:52.574Z,99943.40
2022-11-09T06:53:21.001Z,99940.26
2022-11-09T06:55:51.013Z,99939.19
2022-11-09T06:58:19.924Z,99933.60
2022-11-09T07:00:47.702Z,99935.30
2022-11-09T07:03:17.487Z,99937.11
2022-11-09T07:05:46.288Z,99933.73
2022-11-09T07:08:17.211Z,99932.09
2022-11-09T07:10:45.835Z,99929.64
2022-11-09T07:13:16.911Z,99928.21
2022-11-09T07:15:44.652Z,99924.04
2022-11-09T07:18:13.211Z,99931.79
2022-11-09T07:20:43.545Z,99930.19
2022-11-09T07:23:14.501Z,99935.30
2022-11-09T07:25:42.078Z,99928.37
2022-11-09T07:28:11.323Z,99929.35
2022-11-09T07:30:40.046Z,99923.05
2022-11-09T07:33:18.259Z,99917.76
2022-11-09T07:35:47.046Z,99910.73
2022-11-09T07:38:20.340Z,99908.05
2022-11-09T07:40:51.283Z,99911.46
2022-11-09T07:43:20.749Z,99909.50
2022-11-09T07:45:49.234Z,99907.74
2022-11-09T07:48:16.870Z,99914.48
2022-11-09T07:50:45.317Z,99912.17
2022-11-09T07:53:14.630Z,99917.48
2022-11-09T07:55:43.288Z,99922.32
2022-11-09T07:58:14.354Z,99921.40
2022-11-09T08:00:43.308Z,99913.41
2022-11-09T08:03:17.662Z,99908.87
2022-11-09T08:05:45.989Z,99910.52
2022-11-09T08:08:17.611Z,99914.08
2022-11-09T08:10:51.508Z,99904.96
2022-11-09T08:13:22.131Z,99906.25
2022-11-09T08:15:50.863Z,99901.34
2022-11-09T08:18:20.805Z,99902.30
2022-11-09T08:20:51.055Z,99901.17
2022-11-09T08:23:21.961Z,99903.83
2022-11-09T08:25:51.287Z,99906.49
2022-11-09T08:28:20.814Z,99907.80
2022-11-09T08:31:04.103Z,99912.20
2022-11-09T08:33:38.527Z,99916.23
2022-11-09T08:36:15.730Z,99913.83
2022-11-09T08:38:50.048Z,99915.23
2022-11-09T08:41:17.936Z,99914.60
2022-11-09T08:43:45.530Z,99913.30
2022-11-09T08:46:14.217Z,99922.52
2022-11-09T08:48:41.799Z,99929.61
2022-11-09T08:51:12.688Z,99927.06
2022-11-09T08:53:43.066Z,99926.18
2022-11-09T08:56:12.898Z,99934.04
2022-11-09T08:58:40.616Z,99937.44
2022-11-09T09:01:15.404Z,99941.83
2022-11-09T09:03:49.660Z,99940.00
2022-11-09T09:06:17.327Z,99945.19
2022-11-09T09:08:46.432Z,99938.54
2022-11-09T09:11:14.063Z,99939.91
2022-11-09T09:13:43.608Z,99931.61
2022-11-09T09:16:14.024Z,99927.43
2022-11-09T09:18:42.068Z,99921.88
2022-11-09T09:21:10.856Z,99926.08
2022-11-09T09:23:38.399Z,99928.64
2022-11-09T09:26:06.265Z,99931.27
2022-11-09T09:28:33.911Z,99921.29
2022-11-09T09:31:02.132Z,99914.55
2022-11-09T09:33:29.766Z,99906.95
2022-11-09T09:35:58.081Z,99909.63
2022-11-09T09:38:27.272Z,99908.27
2022-11-09T09:41:04.504Z,99905.55
2022-11-09T09:43:43.864Z,99900.17
2022-11-09T09:46:34.972Z,99902.67
2022-11-09T09:49:28.692Z,99906.48
2022-11-09T09:52:17.430Z,99908.26
2022-11-09T09:55:06.959Z,99913.06
2022-11-09T09:57:41.663Z,99913.94
2022-11-09T10:00:25.748Z,99914.96
2022-11-09T10:02:54.392Z,99918.84
2022-11-09T10:05:33.073Z,99918.41
2022-11-09T10:08:14.155Z,99914.63
2022-11-09T10:11:03.542Z,99912.54
2022-11-09T10:14:03.053Z,99911.16
2022-11-09T10:17:01.505Z,99909.41
2022-11-09T10:19:48.005Z,99904.42
2022-11-09T10:22:19.905Z,99898.13
2022-11-09T10:25:23.643Z,99900.40
2022-11-09T10:28:03.962Z,99890.86
2022-11-09T10:30:32.146Z,99897.45
2022-11-09T10:33:24.101Z,99900.98
2022-11-09T10:36:19.177Z,99900.20
2022-11-09T10:38:51.542Z,99910.04
2022-11-09T10:41:37.916Z,99906.30
2022-11-09T10:44:17.134Z,99905.80
2022-11-09T10:47:08.022Z,99916.19
2022-11-09T10:49:37.545Z,99928.20
2022-11-09T10:52:10.972Z,99924.55
2022-11-09T10:54:38.730Z,99926.64
2022-11-09T10:57:22.446Z,99925.04
2022-11-09T11:00:01.043Z,99922.30
2022-11-09T11:02:41.485Z,99918.54
2022-11-09T11:05:09.514Z,99930.89
2022-11-09T11:07:37.049Z,99928.48
2022-11-09T11:10:17.212Z,99924.47
2022-11-09T11:13:16.903Z,99918.73
2022-11-09T11:15:45.371Z,99912.42
2022-11-09T11:18:17.106Z,99906.40
2022-11-09T11:20:45.309Z,99901.55
2022-11-09T11:23:28.759Z,99900.05
2022-11-09T11:26:28.344Z,99894.69
2022-11-09T11:29:01.783Z,99884.77
2022-11-09T11:31:29.741Z,99884.30
2022-11-09T11:34:02.731Z,99898.11
2022-11-09T11:36:49.768Z,99888.43
2022-11-09T11:39:34.164Z,99885.30
2022-11-09T11:42:20.173Z,99893.66
2022-11-09T11:45:26.108Z,99901.92
2022-11-09T11:48:26.056Z,99898.14
2022-11-09T11:51:26.601Z,99894.92
2022-11-09T11:54:26.078Z,99893.44
2022-11-09T11:57:16.775Z,99895.55
2022-11-09T12:00:16.246Z,99896.08
2022-11-09T12:03:03.104Z,99899.80
2022-11-09T12:05:33.790Z,99904.34
2022-11-09T12:08:13.161Z,99900.48
2022-11-09T12:10:41.304Z,99903.80
2022-11-09T12:13:44.494Z,99910.02
2022-11-09T12:16:46.622Z,99905.88
2022-11-09T12:19:40.466Z,99902.67
2022-11-09T12:22:24.023Z,99894.02
2022-11-09T12:25:16.883Z,99895.42
2022-11-09T12:28:00.528Z,99894.56
2022-11-09T12:30:49.357Z,99887.96
2022-11-09T12:33:54.377Z,99884.39
2022-11-09T12:36:35.434Z,99878.61
2022-11-09T12:39:22.462Z,99886.17
2022-11-09T12:41:53.905Z,99887.49
2022-11-09T12:44:32.357Z,99895.55
2022-11-09T12:47:07.037Z,99899.55
2022-11-09T12:49:40.933Z,99899.14
2022-11-09T12:52:13.028Z,99896.46
2022-11-09T12:54:44.033Z,99898.28
2022-11-09T12:57:33.236Z,99905.61
2022-11-09T13:00:01.596Z,99904.27
2022-11-09T13:02:35.102Z,99902.34
2022-11-09T13:05:26.245Z,99912.27
2022-11-09T13:07:55.317Z,99921.45
2022-11-09T13:10:25.403Z,99922.75
2022-11-09T13:13:12.129Z,99921.41
2022-11-09T13:15:40.129Z,99926.30
2022-11-09T13:18:46.265Z,99923.42
2022-11-09T13:21:34.764Z,99924.92
2022-11-09T13:24:34.517Z,99926.33
2022-11-09T13:27:03.996Z,99924.58
2022-11-09T13:29:55.112Z,99929.16
2022-11-09T13:32:27.520Z,99924.86
2022-11-09T13:35:00.256Z,99913.89
2022-11-09T13:37:46.010Z,99914.46
2022-11-09T13:40:30.527Z,99911.77
2022-11-09T13:43:08.297Z,99913.98
2022-11-09T13:45:44.071Z,99910.71
2022-11-09T13:48:47.819Z,99912.38
2022-11-09T13:51:47.354Z,99908.38
2022-11-09T13:54:32.516Z,99901.42
2022-11-09T13:57:04.718Z,99901.86
2022-11-09T13:59:39.385Z,99902.23
2022-11-09T14:02:24.342Z,99906.09
2022-11-09T14:04:51.911Z,99913.02
2022-11-09T14:07:29.256Z,99915.20
2022-11-09T14:09:56.789Z,99917.14
2022-11-09T14:12:42.258Z,99915.23
2022-11-09T14:15:41.824Z,99923.98
2022-11-09T14:18:12.452Z,99918.68
2022-11-09T14:20:56.015Z,99893.98
2022-11-09T14:23:28.953Z,99883.05
2022-11-09T14:25:57.015Z,99893.35
2022-11-09T14:28:29.074Z,99897.91
2022-11-09T14:30:58.059Z,99902.95
2022-11-09T14:33:32.918Z,99906.59
2022-11-09T14:36:04.385Z,99925.73
2022-11-09T14:38:35.601Z,99930.67
2022-11-09T14:41:03.706Z,99928.14
2022-11-09T14:43:43.015Z,99924.94
2022-11-09T14:46:28.939Z,99916.20
2022-11-09T14:48:59.581Z,99907.61
2022-11-09T14:51:33.439Z,99892.66
2022-11-09T14:54:05.691Z,99879.66
2022-11-09T14:56:37.783Z,99884.88
2022-11-09T14:59:08.389Z,99894.83
2022-11-09T15:01:36.090Z,99903.39
2022-11-09T15:04:21.773Z,99895.40
2022-11-09T15:07:02.578Z,99912.70
2022-11-09T15:09:42.338Z,99924.14
2022-11-09T15:12:15.389Z,99931.25
2022-11-09T15:14:47.837Z,99933.60
2022-11-09T15:17:32.157Z,99930.70
2022-11-09T15:20:02.650Z,99938.00
2022-11-09T15:22:46.164Z,99933.43
2022-11-09T15:25:29.648Z,99917.46
2022-11-09T15:28:00.167Z,99922.85
2022-11-09T15:30:27.711Z,99940.60
2022-11-09T15:32:55.403Z,99936.10
2022-11-09T15:35:23.566Z,99937.66
2022-11-09T15:37:53.786Z,99936.94
2022-11-09T15:40:24.546Z,99929.23
2022-11-09T15:42:52.225Z,99927.48
2022-11-09T15:45:21.464Z,99937.22
2022-11-09T15:47:55.422Z,99941.61
2022-11-09T15:50:26.854Z,99934.64
2022-11-09T15:52:54.454Z,99934.36
2022-11-09T15:55:23.202Z,99932.08
2022-11-09T15:57:52.495Z,99922.09
2022-11-09T16:00:21.830Z,99926.04
2022-11-09T16:02:49.606Z,99934.16
2022-11-09T16:05:18.317Z,99932.22
2022-11-09T16:07:51.318Z,99950.53
2022-11-09T16:10:20.428Z,99950.45
2022-11-09T16:12:47.999Z,99943.15
2022-11-09T16:15:15.592Z,99941.94
2022-11-09T16:17:43.144Z,99952.73
2022-11-09T16:20:11.143Z,99963.27
2022-11-09T16:22:38.851Z,99965.56
2022-11-09T16:25:06.681Z,99950.50
2022-11-09T16:27:49.633Z,99957.14
2022-11-09T16:30:19.698Z,99956.11
2022-11-09T16:32:47.244Z,99955.92
2022-11-09T16:35:26.722Z,99957.87
2022-11-09T16:37:56.823Z,99947.61
2022-11-09T16:40:25.884Z,99954.29
2022-11-09T16:42:53.513Z,99955.90
2022-11-09T16:45:21.518Z,99962.91
2022-11-09T16:47:52.457Z,99973.95
2022-11-09T16:50:20.006Z,99988.60
2022-11-09T16:52:47.539Z,99976.80
2022-11-09T16:55:15.088Z,99971.63
2022-11-09T16:57:42.675Z,99974.98
2022-11-09T17:00:10.884Z,99974.45
2022-11-09T17:02:38.514Z,99970.73
2022-11-09T17:05:06.574Z,99966.49
2022-11-09T17:07:42.061Z,99962.81
2022-11-09T17:10:11.761Z,99959.67
2022-11-09T17:12:40.077Z,99968.54
2022-11-09T17:15:08.520Z,99972.38
2022-11-09T17:17:36.098Z,99971.00
2022-11-09T17:20:05.578Z,99971.16
2022-11-09T17:22:33.483Z,99970.80
2022-11-09T17:25:01.103Z,99966.65
2022-11-09T17:27:28.970Z,99962.55
2022-11-09T17:29:56.552Z,99956.25
2022-11-09T17:32:27.362Z,99953.55
2022-11-09T17:34:55.686Z,99950.29
2022-11-09T17:37:24.015Z,99949.97
2022-11-09T17:39:51.904Z,99948.56
2022-11-09T17:42:19.455Z,99950.47
2022-11-09T17:44:47.000Z,99953.96
2022-11-09T17:47:14.578Z,99949.97
2022-11-09T17:49:42.157Z,99947.94
2022-11-09T17:52:09.693Z,99940.67
2022-11-09T17:54:37.509Z,99940.52
2022-11-09T17:57:05.222Z,99944.75
2022-11-09T17:59:32.807Z,99941.52
2022-11-09T18:02:00.386Z,99945.34
2022-11-09T18:04:28.095Z,99949.59
2022-11-09T18:06:55.723Z,99949.66
2022-11-09T18:12:11.422Z,99942.94
2022-11-09T18:14:38.972Z,99947.48
2022-11-09T18:17:06.696Z,99943.19
2022-11-09T18:19:34.246Z,99942.52
2022-11-09T18:22:03.402Z,99941.12
2022-11-09T18:24:33.108Z,99938.90
2022-11-09T18:27:00.860Z,99938.08
2022-11-09T18:29:28.504Z,99936.55
2022-11-09T18:31:56.031Z,99941.77
2022-11-09T18:34:23.596Z,99944.54
2022-11-09T18:36:51.179Z,99953.42
2022-11-09T18:39:18.798Z,99962.70
2022-11-09T18:41:46.398Z,99969.55
2022-11-09T18:44:13.931Z,99975.91
2022-11-09T18:46:41.550Z,99976.87
2022-11-09T18:49:14.071Z,99978.11
2022-11-09T18:51:42.925Z,99969.23
2022-11-09T18:54:10.510Z,99963.28
2022-11-09T18:56:38.114Z,99962.58
2022-11-09T18:59:05.705Z,99964.17
2022-11-09T19:01:33.298Z,99963.33
2022-11-09T19:04:01.834Z,99958.81
2022-11-09T19:06:29.527Z,99953.29
2022-11-09T19:09:13.168Z,99953.59
2022-11-09T19:11:40.792Z,99948.54
2022-11-09T19:14:10.485Z,99955.66
2022-11-09T19:16:38.289Z,99959.48
2022-11-09T19:19:05.910Z,99966.98
2022-11-09T19:21:40.823Z,99969.23
2022-11-09T19:24:12.532Z,99966.97
2022-11-09T19:26:40.445Z,99962.90
2022-11-09T19:29:09.554Z,99962.10
2022-11-09T19:31:38.443Z,99966.58
2022-11-09T19:34:06.072Z,99967.59
2022-11-09T19:36:33.710Z,99969.65
2022-11-09T19:39:02.148Z,99971.41
2022-11-09T19:41:29.834Z,99971.77
2022-11-09T19:43:58.917Z,99974.87
2022-11-09T19:46:31.071Z,99979.35
2022-11-09T19:48:59.837Z,99980.00
2022-11-09T19:51:31.014Z,99977.73
2022-11-09T19:53:59.941Z,99981.63
2022-11-09T19:56:30.888Z,99977.86
2022-11-09T19:59:01.544Z,99973.86
2022-11-09T20:01:30.756Z,99972.41
2022-11-09T20:04:00.342Z,99974.64
2022-11-09T20:06:29.165Z,99980.92
2022-11-09T20:08:59.912Z,99979.55
2022-11-09T20:11:45.356Z,99982.20
2022-11-09T20:14:14.129Z,99983.27
2022-11-09T20:16:44.370Z,99978.23
2022-11-09T20:19:14.072Z,99984.87
2022-11-09T20:21:42.603Z,99980.77
2022-11-09T20:24:12.259Z,99980.36
2022-11-09T20:26:40.879Z,99981.89
2022-11-09T20:29:08.442Z,99984.77
2022-11-09T20:31:37.481Z,99990.61
2022-11-09T20:34:05.860Z,99999.45
2022-11-09T20:36:35.055Z,99995.80
2022-11-09T20:39:03.361Z,99993.31
2022-11-09T20:41:32.827Z,99996.55
2022-11-09T20:44:00.407Z,99994.56
2022-11-09T20:46:34.493Z,99994.82
2022-11-09T20:49:04.533Z,99998.67
2022-11-09T20:51:32.719Z,99997.98
2022-11-09T20:54:05.671Z,100000.41
2022-11-09T20:56:37.372Z,99993.65
2022-11-09T20:59:05.450Z,99996.52
2022-11-09T21:01:33.127Z,99998.09
2022-11-09T21:04:00.770Z,99998.78
2022-11-09T21:06:28.540Z,100001.69
2022-11-09T21:08:56.951Z,100001.81
2022-11-09T21:11:28.551Z,99999.02
2022-11-09T21:13:56.217Z,99997.78
2022-11-09T21:16:24.103Z,99999.14
2022-11-09T21:18:52.006Z,99998.41
2022-11-09T21:21:23.359Z,99991.29
2022-11-09T21:24:06.996Z,99990.27
2022-11-09T21:26:51.224Z,99990.41
2022-11-09T21:29:36.515Z,99985.05
2022-11-09T21:32:05.089Z,99986.84
2022-11-09T21:34:36.826Z,99990.02
2022-11-09T21:37:05.283Z,99991.98
2022-11-09T21:39:33.692Z,99995.84
2022-11-09T21:42:02.683Z,99997.11
2022-11-09T21:44:32.386Z,99991.90
2022-11-09T21:47:01.196Z,99986.70
2022-11-09T21:49:28.986Z,99990.72
2022-11-09T21:51:56.954Z,99995.99
2022-11-09T21:54:25.401Z,99996.08
2022-11-09T21:56:53.081Z,99999.08
2022-11-09T21:59:20.732Z,100003.52
2022-11-09T22:01:48.526Z,100001.33
2022-11-09T22:04:16.259Z,100001.93
2022-11-09T22:06:43.949Z,100001.48
2022-11-09T22:09:18.164Z,99999.66
2022-11-09T22:12:02.090Z,99998.55
2022-11-09T22:14:45.683Z,99995.93
2022-11-09T22:17:13.580Z,99992.24
2022-11-09T22:19:57.193Z,99992.35
2022-11-09T22:22:28.775Z,99990.69
2022-11-09T22:24:57.267Z,99991.27
2022-11-09T22:27:25.120Z,99990.48
2022-11-09T22:29:52.721Z,99994.69
2022-11-09T22:32:20.815Z,99994.25
2022-11-09T22:34:48.424Z,99994.48
2022-11-09T22:37:16.195Z,99996.42
2022-11-09T22:39:47.194Z,99994.23
2022-11-09T22:42:15.288Z,100000.70
2022-11-09T22:44:42.824Z,100004.41
2022-11-09T22:47:10.766Z,100005.81
2022-11-09T22:49:38.386Z,100003.63
2022-11-09T22:52:06.033Z,100002.27
2022-11-09T22:54:33.595Z,100003.41
2022-11-09T22:57:01.116Z,100005.61
2022-11-09T22:59:28.654Z,100001.33
2022-11-09T23:01:56.237Z,100000.38
2022-11-09T23:04:23.912Z,100009.64
2022-11-09T23:06:51.472Z,100005.53
2022-11-09T23:09:19.099Z,99997.56
2022-11-09T23:11:46.696Z,99998.95
2022-11-09T23:14:14.282Z,99998.23
2022-11-09T23:16:41.789Z,100002.23
2022-11-09T23:19:09.326Z,100006.06
2022-11-09T23:21:37.411Z,100009.02
2022-11-09T23:24:07.313Z,100008.15
2022-11-09T23:26:34.886Z,100011.11
2022-11-09T23:29:02.430Z,100008.59
2022-11-09T23:31:29.946Z,100009.28
2022-11-09T23:33:57.972Z,100008.66
2022-11-09T23:36:26.532Z,100009.52
2022-11-09T23:38:54.080Z,100013.17
2022-11-09T23:41:21.676Z,100019.27
2022-11-09T23:43:50.201Z,100020.52
2022-11-09T23:46:18.179Z,100021.77
2022-11-09T23:48:45.903Z,100023.07
2022-11-09T23:51:13.524Z,100023.42
2022-11-09T23:53:41.067Z,100024.48
2022-11-09T23:56:11.291Z,100030.20
2022-11-09T23:58:39.065Z,100025.18
